Airfield :
LOGIN :

Register | Disclaimer

   EN    FR    IT 

 










Legend :    VFR   Marginal VFR   IFR   Intensive IFR   Very Intensive IFR
Visi :
Ceiling :
>= 8 km
>= 3000ft
5 to 8 km
1000 to 3000 ft
1500m to 5 km
500 to 1000 ft
800 to 1500m
200 to 500 ft
< 800m
< 200 ft
Symbols :   Thunderstorms  Fog  Heavy snow  Heavy precipitations  Wind > 20 kt
SIGMETs :     Misc.  Thunderstorms  Icing  Turbulence  Mountain Waves  Volcanic Ashes







- Airport Elevation : 2220 ft


LOXZ - Zeltweg AB

CURRENT METAR :
  • 200720Z 29006KT 10KM FEW035SC 00/M02 Q1018 NOSIG

EXPIRED METARs :
  • 200650Z 01002KT 8000 VCSH FEW035SC M01/M03 Q1018 NOSIG
  • 200620Z 01005KT 8000 VCSH FEW035SC M02/M04 Q1018 NOSIG
  • 200550Z VRB02KT 15KM FEW035SC SCT240CI M02/M04 Q1017
  • 200450Z VRB03KT 15KM FEW040SC M01/M04 Q1017

TAF TAF LOXZ
Valid from the 20 at 06:00 until the 20 at 15:00 UTC


200615Z 2006/2015 06005KT 9999 SCT040 BKN260
TEMPO 2009/2015 30012KT
No reported NOTAMs for that airfield.



MET'MAP, your aeronautical weather chart ! - Copyright ORBIFLY December 2007 - Disclaimer

ORBIFLY MET'MAP TEAM :

Programming & Development : Alexandra Zaïnal
Concept & Development : Baudouin d'Aumeries
Co-Development & Prog : Marc-Olivier Méhu
Technical & hardware support : Manuel Goepfert

Contact : metmap@orbifly.com




SOURCES & CREDITS :

   NOAA